sensor_id;sensor_type;location;lat;lon;timestamp;P1;P2;P0
57563;PMS7003;43400;45.926;6.724;2023-03-21T00:01:01;1.00;1.00;1.00
57563;PMS7003;43400;45.926;6.724;2023-03-21T00:03:34;2.75;2.00;2.00
57563;PMS7003;43400;45.926;6.724;2023-03-21T00:06:08;2.00;2.00;1.00
57563;PMS7003;43400;45.926;6.724;2023-03-21T00:08:42;2.00;2.00;2.00
57563;PMS7003;43400;45.926;6.724;2023-03-21T00:11:13;2.00;2.00;1.80
57563;PMS7003;43400;45.926;6.724;2023-03-21T00:13:45;5.20;3.40;2.60
57563;PMS7003;43400;45.926;6.724;2023-03-21T00:16:18;3.00;3.00;2.75
57563;PMS7003;43400;45.926;6.724;2023-03-21T00:18:52;3.00;3.00;2.00
57563;PMS7003;43400;45.926;6.724;2023-03-21T00:21:26;2.00;2.00;2.00
57563;PMS7003;43400;45.926;6.724;2023-03-21T00:23:59;2.00;2.00;2.00
57563;PMS7003;43400;45.926;6.724;2023-03-21T00:26:31;2.40;2.40;2.00
57563;PMS7003;43400;45.926;6.724;2023-03-21T00:29:04;2.00;2.00;2.00
57563;PMS7003;43400;45.926;6.724;2023-03-21T00:31:36;3.00;3.00;2.00
57563;PMS7003;43400;45.926;6.724;2023-03-21T00:34:08;3.50;2.25;1.75
57563;PMS7003;43400;45.926;6.724;2023-03-21T00:36:40;2.00;2.00;2.00
57563;PMS7003;43400;45.926;6.724;2023-03-21T00:39:13;1.25;1.25;1.00
57563;PMS7003;43400;45.926;6.724;2023-03-21T00:41:45;1.60;1.60;1.00
57563;PMS7003;43400;45.926;6.724;2023-03-21T00:44:16;3.00;2.20;2.00
57563;PMS7003;43400;45.926;6.724;2023-03-21T00:46:48;3.00;3.00;2.00
57563;PMS7003;43400;45.926;6.724;2023-03-21T00:49:20;2.00;2.00;1.00
57563;PMS7003;43400;45.926;6.724;2023-03-21T00:51:52;2.60;2.60;2.00
57563;PMS7003;43400;45.926;6.724;2023-03-21T00:54:24;2.00;2.00;1.75
57563;PMS7003;43400;45.926;6.724;2023-03-21T00:56:56;2.00;2.00;1.75
57563;PMS7003;43400;45.926;6.724;2023-03-21T00:59:28;2.20;2.00;1.00
57563;PMS7003;43400;45.926;6.724;2023-03-21T01:02:00;2.25;2.25;2.00
57563;PMS7003;43400;45.926;6.724;2023-03-21T01:04:32;2.00;2.00;2.00
57563;PMS7003;43400;45.926;6.724;2023-03-21T01:07:04;2.80;2.80;2.20
57563;PMS7003;43400;45.926;6.724;2023-03-21T01:09:36;2.00;2.00;2.00
57563;PMS7003;43400;45.926;6.724;2023-03-21T01:12:08;2.00;2.00;1.25
57563;PMS7003;43400;45.926;6.724;2023-03-21T01:14:40;3.00;3.00;3.00
57563;PMS7003;43400;45.926;6.724;2023-03-21T01:17:12;2.00;2.00;1.75
57563;PMS7003;43400;45.926;6.724;2023-03-21T01:19:44;3.50;2.25;1.50
57563;PMS7003;43400;45.926;6.724;2023-03-21T01:22:15;1.80;1.80;1.60
57563;PMS7003;43400;45.926;6.724;2023-03-21T01:24:47;1.75;1.75;1.00
57563;PMS7003;43400;45.926;6.724;2023-03-21T01:27:20;3.00;2.00;2.00
57563;PMS7003;43400;45.926;6.724;2023-03-21T01:29:52;2.00;1.50;1.00
57563;PMS7003;43400;45.926;6.724;2023-03-21T01:32:23;1.80;1.80;1.80
57563;PMS7003;43400;45.926;6.724;2023-03-21T01:34:55;2.00;1.00;1.00
57563;PMS7003;43400;45.926;6.724;2023-03-21T01:37:27;1.00;1.00;1.00
57563;PMS7003;43400;45.926;6.724;2023-03-21T01:39:59;1.00;1.00;1.00
57563;PMS7003;43400;45.926;6.724;2023-03-21T01:42:30;1.00;1.00;0.00
57563;PMS7003;43400;45.926;6.724;2023-03-21T01:45:06;2.00;2.00;1.00
57563;PMS7003;43400;45.926;6.724;2023-03-21T01:48:13;1.00;1.00;1.00
57563;PMS7003;43400;45.926;6.724;2023-03-21T01:50:45;1.00;1.00;1.00
57563;PMS7003;43400;45.926;6.724;2023-03-21T01:53:18;1.50;1.50;1.00
57563;PMS7003;43400;45.926;6.724;2023-03-21T01:55:52;1.00;1.00;1.00
57563;PMS7003;43400;45.926;6.724;2023-03-21T01:58:24;0.25;0.25;0.00
57563;PMS7003;43400;45.926;6.724;2023-03-21T02:00:56;1.00;1.00;0.20
57563;PMS7003;43400;45.926;6.724;2023-03-21T02:03:29;1.00;1.00;1.00
57563;PMS7003;43400;45.926;6.724;2023-03-21T02:06:01;0.00;0.00;0.00
57563;PMS7003;43400;45.926;6.724;2023-03-21T02:08:38;1.25;1.25;1.00
57563;PMS7003;43400;45.926;6.724;2023-03-21T02:11:10;0.00;0.00;0.00
57563;PMS7003;43400;45.926;6.724;2023-03-21T02:13:42;2.20;1.00;1.00
57563;PMS7003;43400;45.926;6.724;2023-03-21T02:16:23;1.00;1.00;1.00
57563;PMS7003;43400;45.926;6.724;2023-03-21T02:24:53;1.00;1.00;0.00
57563;PMS7003;43400;45.926;6.724;2023-03-21T02:27:33;0.00;0.00;0.00
57563;PMS7003;43400;45.926;6.724;2023-03-21T02:33:10;0.00;0.00;0.00
57563;PMS7003;43400;45.926;6.724;2023-03-21T02:36:15;0.00;0.00;0.00
57563;PMS7003;43400;45.926;6.724;2023-03-21T02:38:53;0.40;0.40;0.40
57563;PMS7003;43400;45.926;6.724;2023-03-21T02:41:46;1.00;1.00;1.00
57563;PMS7003;43400;45.926;6.724;2023-03-21T02:44:34;1.00;1.00;0.20
57563;PMS7003;43400;45.926;6.724;2023-03-21T02:47:20;1.00;0.00;0.00
57563;PMS7003;43400;45.926;6.724;2023-03-21T02:52:55;0.00;0.00;0.00
57563;PMS7003;43400;45.926;6.724;2023-03-21T02:55:29;1.00;1.00;0.80
57563;PMS7003;43400;45.926;6.724;2023-03-21T02:58:02;1.00;1.00;0.00
57563;PMS7003;43400;45.926;6.724;2023-03-21T03:00:36;1.00;1.00;1.00
57563;PMS7003;43400;45.926;6.724;2023-03-21T03:03:09;1.00;1.00;1.00
57563;PMS7003;43400;45.926;6.724;2023-03-21T03:05:49;2.00;1.00;1.00
57563;PMS7003;43400;45.926;6.724;2023-03-21T03:08:31;0.40;0.40;0.00
57563;PMS7003;43400;45.926;6.724;2023-03-21T03:11:24;1.00;1.00;0.00
57563;PMS7003;43400;45.926;6.724;2023-03-21T03:28:29;2.00;1.00;0.20
57563;PMS7003;43400;45.926;6.724;2023-03-21T03:31:04;1.00;1.00;1.00
57563;PMS7003;43400;45.926;6.724;2023-03-21T03:33:39;0.00;0.00;0.00
57563;PMS7003;43400;45.926;6.724;2023-03-21T03:36:15;1.75;1.75;1.75
57563;PMS7003;43400;45.926;6.724;2023-03-21T03:38:48;1.00;1.00;0.00
57563;PMS7003;43400;45.926;6.724;2023-03-21T03:41:23;1.00;1.00;0.20
57563;PMS7003;43400;45.926;6.724;2023-03-21T03:43:57;0.00;0.00;0.00
57563;PMS7003;43400;45.926;6.724;2023-03-21T03:46:33;2.00;0.80;0.00
57563;PMS7003;43400;45.926;6.724;2023-03-21T03:49:14;1.00;1.00;0.00
57563;PMS7003;43400;45.926;6.724;2023-03-21T03:52:04;0.75;0.75;0.75
57563;PMS7003;43400;45.926;6.724;2023-03-21T03:54:43;5.00;5.00;5.00
57563;PMS7003;43400;45.926;6.724;2023-03-21T03:57:17;1.00;1.00;0.20
57563;PMS7003;43400;45.926;6.724;2023-03-21T03:59:50;14.50;14.50;13.50
57563;PMS7003;43400;45.926;6.724;2023-03-21T04:02:21;1.00;1.00;1.00
57563;PMS7003;43400;45.926;6.724;2023-03-21T04:04:53;1.80;1.80;1.20
57563;PMS7003;43400;45.926;6.724;2023-03-21T04:07:25;1.25;1.25;1.25
57563;PMS7003;43400;45.926;6.724;2023-03-21T04:09:56;1.00;1.00;1.00
57563;PMS7003;43400;45.926;6.724;2023-03-21T04:12:28;8.00;7.00;6.50
57563;PMS7003;43400;45.926;6.724;2023-03-21T04:15:00;8.60;8.60;6.80
57563;PMS7003;43400;45.926;6.724;2023-03-21T04:17:31;5.00;5.00;3.40
57563;PMS7003;43400;45.926;6.724;2023-03-21T04:20:03;2.75;2.75;2.00
57563;PMS7003;43400;45.926;6.724;2023-03-21T04:22:35;2.00;2.00;2.00
57563;PMS7003;43400;45.926;6.724;2023-03-21T04:25:07;10.80;10.00;8.60
57563;PMS7003;43400;45.926;6.724;2023-03-21T04:27:39;2.25;2.25;2.00
57563;PMS7003;43400;45.926;6.724;2023-03-21T04:30:11;1.25;1.25;1.00
57563;PMS7003;43400;45.926;6.724;2023-03-21T04:32:43;1.00;1.00;1.00
57563;PMS7003;43400;45.926;6.724;2023-03-21T04:35:14;1.00;0.80;0.20
57563;PMS7003;43400;45.926;6.724;2023-03-21T04:37:46;1.00;1.00;1.00
57563;PMS7003;43400;45.926;6.724;2023-03-21T04:40:17;0.40;0.40;0.40
57563;PMS7003;43400;45.926;6.724;2023-03-21T04:42:49;0.00;0.00;0.00
57563;PMS7003;43400;45.926;6.724;2023-03-21T04:45:21;1.00;1.00;0.00
57563;PMS7003;43400;45.926;6.724;2023-03-21T04:47:53;1.00;0.00;0.00
57563;PMS7003;43400;45.926;6.724;2023-03-21T04:50:24;1.00;1.00;1.00
57563;PMS7003;43400;45.926;6.724;2023-03-21T04:52:56;2.00;1.00;0.00
57563;PMS7003;43400;45.926;6.724;2023-03-21T04:55:28;0.00;0.00;0.00
57563;PMS7003;43400;45.926;6.724;2023-03-21T04:58:00;0.00;0.00;0.00
57563;PMS7003;43400;45.926;6.724;2023-03-21T05:00:31;1.00;1.00;1.00
57563;PMS7003;43400;45.926;6.724;2023-03-21T05:03:04;0.00;0.00;0.00
57563;PMS7003;43400;45.926;6.724;2023-03-21T05:05:36;1.00;1.00;1.00
57563;PMS7003;43400;45.926;6.724;2023-03-21T05:08:08;0.25;0.25;0.00
57563;PMS7003;43400;45.926;6.724;2023-03-21T05:10:40;0.00;0.00;0.00
57563;PMS7003;43400;45.926;6.724;2023-03-21T05:13:12;1.00;1.00;0.75
57563;PMS7003;43400;45.926;6.724;2023-03-21T05:15:44;0.40;0.00;0.00
57563;PMS7003;43400;45.926;6.724;2023-03-21T05:18:15;1.75;0.75;0.00
57563;PMS7003;43400;45.926;6.724;2023-03-21T05:20:47;1.00;1.00;1.00
57563;PMS7003;43400;45.926;6.724;2023-03-21T05:23:19;0.75;0.75;0.00
57563;PMS7003;43400;45.926;6.724;2023-03-21T05:25:51;0.00;0.00;0.00
57563;PMS7003;43400;45.926;6.724;2023-03-21T05:28:23;0.00;0.00;0.00
57563;PMS7003;43400;45.926;6.724;2023-03-21T05:30:54;1.00;1.00;0.60
57563;PMS7003;43400;45.926;6.724;2023-03-21T05:33:25;2.75;2.75;1.25
57563;PMS7003;43400;45.926;6.724;2023-03-21T05:35:57;6.25;5.25;5.00
57563;PMS7003;43400;45.926;6.724;2023-03-21T05:38:29;2.25;2.25;2.00
57563;PMS7003;43400;45.926;6.724;2023-03-21T05:41:00;1.80;1.80;1.20
57563;PMS7003;43400;45.926;6.724;2023-03-21T05:43:32;1.75;1.75;1.00
57563;PMS7003;43400;45.926;6.724;2023-03-21T05:46:04;1.00;1.00;1.00
57563;PMS7003;43400;45.926;6.724;2023-03-21T05:48:35;2.00;2.00;1.00
57563;PMS7003;43400;45.926;6.724;2023-03-21T05:51:07;1.00;1.00;1.00
57563;PMS7003;43400;45.926;6.724;2023-03-21T05:53:39;1.00;1.00;0.00
57563;PMS7003;43400;45.926;6.724;2023-03-21T05:56:10;1.00;1.00;1.00
57563;PMS7003;43400;45.926;6.724;2023-03-21T05:58:42;2.75;2.00;1.00
57563;PMS7003;43400;45.926;6.724;2023-03-21T06:01:13;1.00;1.00;1.00
57563;PMS7003;43400;45.926;6.724;2023-03-21T06:03:45;2.00;1.25;1.00
57563;PMS7003;43400;45.926;6.724;2023-03-21T06:06:17;1.00;1.00;1.00
57563;PMS7003;43400;45.926;6.724;2023-03-21T06:08:49;1.00;1.00;1.00
57563;PMS7003;43400;45.926;6.724;2023-03-21T06:11:31;3.25;2.00;1.25
57563;PMS7003;43400;45.926;6.724;2023-03-21T06:14:05;1.00;1.00;0.50
57563;PMS7003;43400;45.926;6.724;2023-03-21T06:16:37;1.20;1.20;1.00
57563;PMS7003;43400;45.926;6.724;2023-03-21T06:19:09;4.20;3.00;2.60
57563;PMS7003;43400;45.926;6.724;2023-03-21T06:21:41;2.40;2.40;2.00
57563;PMS7003;43400;45.926;6.724;2023-03-21T06:24:12;2.50;2.00;2.00
57563;PMS7003;43400;45.926;6.724;2023-03-21T06:26:44;3.00;3.00;2.60
57563;PMS7003;43400;45.926;6.724;2023-03-21T06:29:16;5.00;3.00;3.00
57563;PMS7003;43400;45.926;6.724;2023-03-21T06:31:48;4.60;3.00;2.80
57563;PMS7003;43400;45.926;6.724;2023-03-21T06:34:19;2.00;2.00;1.75
57563;PMS7003;43400;45.926;6.724;2023-03-21T06:36:51;2.00;2.00;2.00
57563;PMS7003;43400;45.926;6.724;2023-03-21T06:39:23;3.00;3.00;2.00
57563;PMS7003;43400;45.926;6.724;2023-03-21T06:41:54;5.00;5.00;3.00
57563;PMS7003;43400;45.926;6.724;2023-03-21T06:44:26;6.00;6.00;5.00
57563;PMS7003;43400;45.926;6.724;2023-03-21T06:46:57;4.00;4.00;2.50
57563;PMS7003;43400;45.926;6.724;2023-03-21T06:49:29;4.50;4.50;3.00
57563;PMS7003;43400;45.926;6.724;2023-03-21T06:52:01;2.00;2.00;1.33
57563;PMS7003;43400;45.926;6.724;2023-03-21T06:54:32;3.00;3.00;3.00
57563;PMS7003;43400;45.926;6.724;2023-03-21T06:57:04;5.00;5.00;3.00
57563;PMS7003;43400;45.926;6.724;2023-03-21T06:59:35;5.00;5.00;4.00
57563;PMS7003;43400;45.926;6.724;2023-03-21T07:02:08;5.75;5.00;3.00
57563;PMS7003;43400;45.926;6.724;2023-03-21T07:04:41;5.75;5.75;5.00
57563;PMS7003;43400;45.926;6.724;2023-03-21T07:07:12;6.00;6.00;5.50
57563;PMS7003;43400;45.926;6.724;2023-03-21T07:09:44;9.80;9.80;5.60
57563;PMS7003;43400;45.926;6.724;2023-03-21T07:12:15;6.00;5.00;3.50
57563;PMS7003;43400;45.926;6.724;2023-03-21T07:14:47;6.00;6.00;5.00
57563;PMS7003;43400;45.926;6.724;2023-03-21T07:17:18;5.60;5.00;3.00
57563;PMS7003;43400;45.926;6.724;2023-03-21T07:19:50;5.00;5.00;3.00
57563;PMS7003;43400;45.926;6.724;2023-03-21T07:22:21;5.50;5.00;5.00
57563;PMS7003;43400;45.926;6.724;2023-03-21T07:24:53;3.40;3.40;3.00
57563;PMS7003;43400;45.926;6.724;2023-03-21T07:27:25;6.75;6.00;5.00
57563;PMS7003;43400;45.926;6.724;2023-03-21T07:29:56;5.20;5.20;4.20
57563;PMS7003;43400;45.926;6.724;2023-03-21T07:32:30;6.60;6.20;5.60
57563;PMS7003;43400;45.926;6.724;2023-03-21T07:35:03;9.80;9.40;7.00
57563;PMS7003;43400;45.926;6.724;2023-03-21T07:37:36;11.80;10.00;7.00
57563;PMS7003;43400;45.926;6.724;2023-03-21T07:40:09;10.20;10.20;8.60
57563;PMS7003;43400;45.926;6.724;2023-03-21T07:42:41;12.40;11.20;10.00
57563;PMS7003;43400;45.926;6.724;2023-03-21T07:45:13;10.20;10.20;8.60
57563;PMS7003;43400;45.926;6.724;2023-03-21T07:47:44;9.75;8.50;7.00
57563;PMS7003;43400;45.926;6.724;2023-03-21T07:50:17;9.00;7.00;5.00
57563;PMS7003;43400;45.926;6.724;2023-03-21T07:52:49;6.60;6.60;5.80
57563;PMS7003;43400;45.926;6.724;2023-03-21T07:55:20;6.00;6.00;4.00
57563;PMS7003;43400;45.926;6.724;2023-03-21T07:57:52;6.40;6.00;5.80
57563;PMS7003;43400;45.926;6.724;2023-03-21T08:00:24;8.00;8.00;6.00
57563;PMS7003;43400;45.926;6.724;2023-03-21T08:02:56;4.60;4.60;3.00
57563;PMS7003;43400;45.926;6.724;2023-03-21T08:05:29;5.75;5.25;5.00
57563;PMS7003;43400;45.926;6.724;2023-03-21T08:08:05;7.00;7.00;5.00
57563;PMS7003;43400;45.926;6.724;2023-03-21T08:10:37;8.25;7.00;6.00
57563;PMS7003;43400;45.926;6.724;2023-03-21T08:13:09;3.00;3.00;3.00
57563;PMS7003;43400;45.926;6.724;2023-03-21T08:15:41;6.00;6.00;6.00
57563;PMS7003;43400;45.926;6.724;2023-03-21T08:18:12;5.00;5.00;3.40
57563;PMS7003;43400;45.926;6.724;2023-03-21T08:20:44;8.00;7.00;6.00
57563;PMS7003;43400;45.926;6.724;2023-03-21T08:23:16;5.00;5.00;5.00
57563;PMS7003;43400;45.926;6.724;2023-03-21T08:25:51;6.00;5.00;5.00
57563;PMS7003;43400;45.926;6.724;2023-03-21T08:28:26;6.80;6.80;5.80
57563;PMS7003;43400;45.926;6.724;2023-03-21T08:30:57;6.00;6.00;5.00
57563;PMS7003;43400;45.926;6.724;2023-03-21T08:33:29;6.00;5.00;3.80
57563;PMS7003;43400;45.926;6.724;2023-03-21T08:36:00;7.40;6.00;5.00
57563;PMS7003;43400;45.926;6.724;2023-03-21T08:38:33;4.60;3.00;3.00
57563;PMS7003;43400;45.926;6.724;2023-03-21T08:41:05;3.80;3.00;2.80
57563;PMS7003;43400;45.926;6.724;2023-03-21T08:43:37;1.00;1.00;1.00
57563;PMS7003;43400;45.926;6.724;2023-03-21T08:46:08;1.00;1.00;1.00
57563;PMS7003;43400;45.926;6.724;2023-03-21T08:48:40;5.00;4.00;3.00
57563;PMS7003;43400;45.926;6.724;2023-03-21T08:51:12;3.75;3.75;3.00
57563;PMS7003;43400;45.926;6.724;2023-03-21T08:53:43;3.60;3.20;2.80
57563;PMS7003;43400;45.926;6.724;2023-03-21T08:56:15;3.00;3.00;2.60
57563;PMS7003;43400;45.926;6.724;2023-03-21T08:58:47;4.00;4.00;3.75
57563;PMS7003;43400;45.926;6.724;2023-03-21T09:01:19;5.20;3.80;3.20
57563;PMS7003;43400;45.926;6.724;2023-03-21T09:03:50;3.00;3.00;2.00
57563;PMS7003;43400;45.926;6.724;2023-03-21T09:06:22;2.00;2.00;2.00
57563;PMS7003;43400;45.926;6.724;2023-03-21T09:08:53;2.00;2.00;2.00
57563;PMS7003;43400;45.926;6.724;2023-03-21T09:11:25;2.00;2.00;2.00
57563;PMS7003;43400;45.926;6.724;2023-03-21T09:13:57;14.40;12.80;9.60
57563;PMS7003;43400;45.926;6.724;2023-03-21T09:16:28;7.00;5.80;5.80
57563;PMS7003;43400;45.926;6.724;2023-03-21T09:19:00;2.00;2.00;2.00
57563;PMS7003;43400;45.926;6.724;2023-03-21T09:21:32;1.75;1.75;1.00
57563;PMS7003;43400;45.926;6.724;2023-03-21T09:24:04;3.60;2.00;1.60
57563;PMS7003;43400;45.926;6.724;2023-03-21T09:26:35;1.00;1.00;1.00
57563;PMS7003;43400;45.926;6.724;2023-03-21T09:29:07;1.00;1.00;1.00
57563;PMS7003;43400;45.926;6.724;2023-03-21T09:31:39;2.00;1.00;1.00
57563;PMS7003;43400;45.926;6.724;2023-03-21T09:34:10;1.00;1.00;0.00
57563;PMS7003;43400;45.926;6.724;2023-03-21T09:36:42;0.25;0.00;0.00
57563;PMS7003;43400;45.926;6.724;2023-03-21T09:39:14;1.00;0.00;0.00
57563;PMS7003;43400;45.926;6.724;2023-03-21T09:41:55;0.75;0.75;0.00
57563;PMS7003;43400;45.926;6.724;2023-03-21T09:44:44;0.00;0.00;0.00
57563;PMS7003;43400;45.926;6.724;2023-03-21T09:47:26;0.00;0.00;0.00
57563;PMS7003;43400;45.926;6.724;2023-03-21T09:50:04;0.00;0.00;0.00
57563;PMS7003;43400;45.926;6.724;2023-03-21T09:52:46;0.00;0.00;0.00
57563;PMS7003;43400;45.926;6.724;2023-03-21T09:55:24;0.00;0.00;0.00
57563;PMS7003;43400;45.926;6.724;2023-03-21T09:58:08;0.00;0.00;0.00
57563;PMS7003;43400;45.926;6.724;2023-03-21T10:01:15;0.00;0.00;0.00
57563;PMS7003;43400;45.926;6.724;2023-03-21T10:03:48;0.00;0.00;0.00
57563;PMS7003;43400;45.926;6.724;2023-03-21T10:06:20;0.00;0.00;0.00
57563;PMS7003;43400;45.926;6.724;2023-03-21T10:08:56;0.40;0.00;0.00
57563;PMS7003;43400;45.926;6.724;2023-03-21T10:11:51;0.00;0.00;0.00
57563;PMS7003;43400;45.926;6.724;2023-03-21T10:14:50;0.00;0.00;0.00
57563;PMS7003;43400;45.926;6.724;2023-03-21T10:22:54;1.00;1.00;1.00
57563;PMS7003;43400;45.926;6.724;2023-03-21T10:28:10;0.80;0.80;0.00
57563;PMS7003;43400;45.926;6.724;2023-03-21T10:30:51;0.00;0.00;0.00
57563;PMS7003;43400;45.926;6.724;2023-03-21T10:33:39;1.00;1.00;1.00
57563;PMS7003;43400;45.926;6.724;2023-03-21T10:36:15;0.60;0.60;0.00
57563;PMS7003;43400;45.926;6.724;2023-03-21T10:38:54;0.00;0.00;0.00
57563;PMS7003;43400;45.926;6.724;2023-03-21T10:41:32;0.00;0.00;0.00
57563;PMS7003;43400;45.926;6.724;2023-03-21T10:44:08;0.00;0.00;0.00
57563;PMS7003;43400;45.926;6.724;2023-03-21T10:49:23;0.00;0.00;0.00
57563;PMS7003;43400;45.926;6.724;2023-03-21T10:51:56;1.00;0.00;0.00
57563;PMS7003;43400;45.926;6.724;2023-03-21T10:54:30;1.00;1.00;1.00
57563;PMS7003;43400;45.926;6.724;2023-03-21T10:57:03;0.80;0.60;0.60
57563;PMS7003;43400;45.926;6.724;2023-03-21T10:59:40;0.00;0.00;0.00
57563;PMS7003;43400;45.926;6.724;2023-03-21T11:02:25;0.00;0.00;0.00
57563;PMS7003;43400;45.926;6.724;2023-03-21T11:05:04;0.00;0.00;0.00
57563;PMS7003;43400;45.926;6.724;2023-03-21T11:07:58;1.00;1.00;0.00
57563;PMS7003;43400;45.926;6.724;2023-03-21T11:10:37;0.00;0.00;0.00
57563;PMS7003;43400;45.926;6.724;2023-03-21T11:13:23;1.00;1.00;1.00
57563;PMS7003;43400;45.926;6.724;2023-03-21T11:16:02;1.00;1.00;0.60
57563;PMS7003;43400;45.926;6.724;2023-03-21T11:18:39;1.60;1.20;1.00
57563;PMS7003;43400;45.926;6.724;2023-03-21T11:21:12;1.00;1.00;1.00
57563;PMS7003;43400;45.926;6.724;2023-03-21T11:23:46;0.00;0.00;0.00
57563;PMS7003;43400;45.926;6.724;2023-03-21T11:26:21;1.00;0.00;0.00
57563;PMS7003;43400;45.926;6.724;2023-03-21T11:28:59;0.00;0.00;0.00
57563;PMS7003;43400;45.926;6.724;2023-03-21T11:31:38;0.20;0.20;0.00
57563;PMS7003;43400;45.926;6.724;2023-03-21T11:34:12;0.00;0.00;0.00
57563;PMS7003;43400;45.926;6.724;2023-03-21T11:36:59;1.00;1.00;0.50
57563;PMS7003;43400;45.926;6.724;2023-03-21T11:39:33;0.00;0.00;0.00
57563;PMS7003;43400;45.926;6.724;2023-03-21T11:42:30;0.40;0.40;0.00
57563;PMS7003;43400;45.926;6.724;2023-03-21T11:45:09;1.60;0.00;0.00
57563;PMS7003;43400;45.926;6.724;2023-03-21T11:47:49;0.00;0.00;0.00
57563;PMS7003;43400;45.926;6.724;2023-03-21T11:50:31;2.00;1.00;1.00
57563;PMS7003;43400;45.926;6.724;2023-03-21T12:16:15;0.00;0.00;0.00
57563;PMS7003;43400;45.926;6.724;2023-03-21T12:21:36;0.00;0.00;0.00
57563;PMS7003;43400;45.926;6.724;2023-03-21T12:24:18;0.00;0.00;0.00
57563;PMS7003;43400;45.926;6.724;2023-03-21T12:32:56;0.00;0.00;0.00
57563;PMS7003;43400;45.926;6.724;2023-03-21T12:46:33;0.00;0.00;0.00
57563;PMS7003;43400;45.926;6.724;2023-03-21T12:49:17;0.00;0.00;0.00
57563;PMS7003;43400;45.926;6.724;2023-03-21T12:52:04;0.00;0.00;0.00
57563;PMS7003;43400;45.926;6.724;2023-03-21T12:54:51;0.00;0.00;0.00
57563;PMS7003;43400;45.926;6.724;2023-03-21T12:58:16;0.00;0.00;0.00
57563;PMS7003;43400;45.926;6.724;2023-03-21T13:00:37;0.00;0.00;0.00
57563;PMS7003;43400;45.926;6.724;2023-03-21T13:03:15;0.00;0.00;0.00
57563;PMS7003;43400;45.926;6.724;2023-03-21T13:05:57;0.00;0.00;0.00
57563;PMS7003;43400;45.926;6.724;2023-03-21T13:08:30;0.00;0.00;0.00
57563;PMS7003;43400;45.926;6.724;2023-03-21T13:11:06;0.00;0.00;0.00
57563;PMS7003;43400;45.926;6.724;2023-03-21T13:16:55;0.00;0.00;0.00
57563;PMS7003;43400;45.926;6.724;2023-03-21T13:19:43;0.00;0.00;0.00
57563;PMS7003;43400;45.926;6.724;2023-03-21T13:22:27;0.00;0.00;0.00
57563;PMS7003;43400;45.926;6.724;2023-03-21T13:25:04;0.00;0.00;0.00
57563;PMS7003;43400;45.926;6.724;2023-03-21T13:27:59;0.00;0.00;0.00
57563;PMS7003;43400;45.926;6.724;2023-03-21T13:30:33;0.00;0.00;0.00
57563;PMS7003;43400;45.926;6.724;2023-03-21T13:33:11;0.00;0.00;0.00
57563;PMS7003;43400;45.926;6.724;2023-03-21T13:35:45;0.00;0.00;0.00
57563;PMS7003;43400;45.926;6.724;2023-03-21T13:38:35;0.00;0.00;0.00
57563;PMS7003;43400;45.926;6.724;2023-03-21T13:41:15;0.00;0.00;0.00
57563;PMS7003;43400;45.926;6.724;2023-03-21T13:43:52;0.00;0.00;0.00
57563;PMS7003;43400;45.926;6.724;2023-03-21T14:05:04;0.00;0.00;0.00
57563;PMS7003;43400;45.926;6.724;2023-03-21T14:07:41;0.00;0.00;0.00
57563;PMS7003;43400;45.926;6.724;2023-03-21T14:10:21;0.00;0.00;0.00
57563;PMS7003;43400;45.926;6.724;2023-03-21T14:13:05;0.00;0.00;0.00
57563;PMS7003;43400;45.926;6.724;2023-03-21T14:15:41;0.00;0.00;0.00
57563;PMS7003;43400;45.926;6.724;2023-03-21T14:18:16;0.00;0.00;0.00
57563;PMS7003;43400;45.926;6.724;2023-03-21T14:20:57;0.00;0.00;0.00
57563;PMS7003;43400;45.926;6.724;2023-03-21T14:23:28;0.00;0.00;0.00
57563;PMS7003;43400;45.926;6.724;2023-03-21T14:26:00;0.00;0.00;0.00
57563;PMS7003;43400;45.926;6.724;2023-03-21T14:28:32;0.00;0.00;0.00
57563;PMS7003;43400;45.926;6.724;2023-03-21T14:31:04;0.00;0.00;0.00
57563;PMS7003;43400;45.926;6.724;2023-03-21T14:33:40;0.00;0.00;0.00
57563;PMS7003;43400;45.926;6.724;2023-03-21T14:36:16;0.00;0.00;0.00
57563;PMS7003;43400;45.926;6.724;2023-03-21T14:38:54;0.00;0.00;0.00
57563;PMS7003;43400;45.926;6.724;2023-03-21T14:41:44;0.00;0.00;0.00
57563;PMS7003;43400;45.926;6.724;2023-03-21T14:47:00;1.50;0.00;0.00
57563;PMS7003;43400;45.926;6.724;2023-03-21T14:49:36;0.00;0.00;0.00
57563;PMS7003;43400;45.926;6.724;2023-03-21T14:52:11;0.20;0.00;0.00
57563;PMS7003;43400;45.926;6.724;2023-03-21T14:54:46;0.00;0.00;0.00
57563;PMS7003;43400;45.926;6.724;2023-03-21T14:57:20;0.00;0.00;0.00
57563;PMS7003;43400;45.926;6.724;2023-03-21T14:59:58;0.00;0.00;0.00
57563;PMS7003;43400;45.926;6.724;2023-03-21T15:02:33;0.00;0.00;0.00
57563;PMS7003;43400;45.926;6.724;2023-03-21T15:05:15;0.00;0.00;0.00
57563;PMS7003;43400;45.926;6.724;2023-03-21T15:08:16;0.00;0.00;0.00
57563;PMS7003;43400;45.926;6.724;2023-03-21T15:11:02;0.20;0.20;0.00
57563;PMS7003;43400;45.926;6.724;2023-03-21T15:13:38;0.40;0.40;0.40
57563;PMS7003;43400;45.926;6.724;2023-03-21T15:16:15;0.00;0.00;0.00
57563;PMS7003;43400;45.926;6.724;2023-03-21T15:18:48;0.00;0.00;0.00
57563;PMS7003;43400;45.926;6.724;2023-03-21T15:21:21;0.80;0.80;0.00
57563;PMS7003;43400;45.926;6.724;2023-03-21T15:23:57;0.80;0.80;0.00
57563;PMS7003;43400;45.926;6.724;2023-03-21T15:26:34;0.00;0.00;0.00
57563;PMS7003;43400;45.926;6.724;2023-03-21T15:29:06;0.00;0.00;0.00
57563;PMS7003;43400;45.926;6.724;2023-03-21T15:31:38;0.60;0.60;0.00
57563;PMS7003;43400;45.926;6.724;2023-03-21T15:34:21;1.00;1.00;0.00
57563;PMS7003;43400;45.926;6.724;2023-03-21T15:37:05;0.00;0.00;0.00
57563;PMS7003;43400;45.926;6.724;2023-03-21T15:39:38;0.00;0.00;0.00
57563;PMS7003;43400;45.926;6.724;2023-03-21T15:42:31;0.00;0.00;0.00
57563;PMS7003;43400;45.926;6.724;2023-03-21T15:45:20;0.00;0.00;0.00
57563;PMS7003;43400;45.926;6.724;2023-03-21T15:47:58;0.00;0.00;0.00
57563;PMS7003;43400;45.926;6.724;2023-03-21T15:50:37;0.00;0.00;0.00
57563;PMS7003;43400;45.926;6.724;2023-03-21T15:53:15;0.00;0.00;0.00
57563;PMS7003;43400;45.926;6.724;2023-03-21T15:55:49;0.20;0.20;0.20
57563;PMS7003;43400;45.926;6.724;2023-03-21T15:58:27;0.25;0.25;0.00
57563;PMS7003;43400;45.926;6.724;2023-03-21T16:01:05;0.33;0.33;0.33
57563;PMS7003;43400;45.926;6.724;2023-03-21T16:03:47;0.00;0.00;0.00
57563;PMS7003;43400;45.926;6.724;2023-03-21T16:06:29;0.50;0.00;0.00
57563;PMS7003;43400;45.926;6.724;2023-03-21T16:09:11;1.00;1.00;1.00
57563;PMS7003;43400;45.926;6.724;2023-03-21T16:11:53;0.00;0.00;0.00
57563;PMS7003;43400;45.926;6.724;2023-03-21T16:14:26;1.00;1.00;0.00
57563;PMS7003;43400;45.926;6.724;2023-03-21T16:16:58;0.00;0.00;0.00
57563;PMS7003;43400;45.926;6.724;2023-03-21T16:19:30;0.00;0.00;0.00
57563;PMS7003;43400;45.926;6.724;2023-03-21T16:22:04;1.00;1.00;1.00
57563;PMS7003;43400;45.926;6.724;2023-03-21T16:24:39;0.50;0.50;0.50
57563;PMS7003;43400;45.926;6.724;2023-03-21T16:27:11;0.50;0.50;0.00
57563;PMS7003;43400;45.926;6.724;2023-03-21T16:29:43;2.00;2.00;1.00
57563;PMS7003;43400;45.926;6.724;2023-03-21T16:32:15;1.00;1.00;1.00
57563;PMS7003;43400;45.926;6.724;2023-03-21T16:34:47;0.00;0.00;0.00
57563;PMS7003;43400;45.926;6.724;2023-03-21T16:37:19;2.00;2.00;1.00
57563;PMS7003;43400;45.926;6.724;2023-03-21T16:39:50;8.60;7.80;6.60
57563;PMS7003;43400;45.926;6.724;2023-03-21T16:42:22;6.60;6.60;4.20
57563;PMS7003;43400;45.926;6.724;2023-03-21T16:44:53;1.00;1.00;1.00
57563;PMS7003;43400;45.926;6.724;2023-03-21T16:47:25;1.80;0.80;0.80
57563;PMS7003;43400;45.926;6.724;2023-03-21T16:49:56;1.00;1.00;1.00
57563;PMS7003;43400;45.926;6.724;2023-03-21T16:52:28;0.25;0.25;0.00